sensor_id;sensor_type;location;lat;lon;timestamp;P1;durP1;ratioP1;P2;durP2;ratioP2
15567;SDS011;7885;42.596;23.044;2022-11-20T00:00:20;3.47;;;1.50;;
15567;SDS011;7885;42.596;23.044;2022-11-20T00:02:47;2.27;;;1.30;;
15567;SDS011;7885;42.596;23.044;2022-11-20T00:05:16;4.17;;;1.73;;
15567;SDS011;7885;42.596;23.044;2022-11-20T00:07:43;4.07;;;1.40;;
15567;SDS011;7885;42.596;23.044;2022-11-20T00:10:10;4.43;;;1.50;;
15567;SDS011;7885;42.596;23.044;2022-11-20T00:12:37;3.90;;;1.40;;
15567;SDS011;7885;42.596;23.044;2022-11-20T00:15:04;3.37;;;1.10;;
15567;SDS011;7885;42.596;23.044;2022-11-20T00:17:32;2.13;;;1.30;;
15567;SDS011;7885;42.596;23.044;2022-11-20T00:19:59;1.57;;;1.00;;
15567;SDS011;7885;42.596;23.044;2022-11-20T00:22:28;3.37;;;1.53;;
15567;SDS011;7885;42.596;23.044;2022-11-20T00:24:55;4.10;;;1.30;;
15567;SDS011;7885;42.596;23.044;2022-11-20T00:27:23;4.90;;;1.60;;
15567;SDS011;7885;42.596;23.044;2022-11-20T00:29:50;4.57;;;1.83;;
15567;SDS011;7885;42.596;23.044;2022-11-20T00:32:16;2.47;;;1.70;;
15567;SDS011;7885;42.596;23.044;2022-11-20T00:34:44;3.90;;;1.57;;
15567;SDS011;7885;42.596;23.044;2022-11-20T00:37:11;3.07;;;1.70;;
15567;SDS011;7885;42.596;23.044;2022-11-20T00:39:39;3.13;;;1.43;;
15567;SDS011;7885;42.596;23.044;2022-11-20T00:42:06;3.83;;;1.50;;
15567;SDS011;7885;42.596;23.044;2022-11-20T00:44:33;3.80;;;1.50;;
15567;SDS011;7885;42.596;23.044;2022-11-20T00:47:00;2.67;;;1.57;;
15567;SDS011;7885;42.596;23.044;2022-11-20T00:49:27;3.90;;;1.40;;
15567;SDS011;7885;42.596;23.044;2022-11-20T00:51:54;4.13;;;1.67;;
15567;SDS011;7885;42.596;23.044;2022-11-20T00:54:21;3.60;;;1.20;;
15567;SDS011;7885;42.596;23.044;2022-11-20T00:56:50;4.80;;;1.20;;
15567;SDS011;7885;42.596;23.044;2022-11-20T00:59:19;1.67;;;0.90;;
15567;SDS011;7885;42.596;23.044;2022-11-20T01:01:46;4.43;;;1.50;;
15567;SDS011;7885;42.596;23.044;2022-11-20T01:04:13;2.60;;;1.70;;
15567;SDS011;7885;42.596;23.044;2022-11-20T01:06:40;2.30;;;1.30;;
15567;SDS011;7885;42.596;23.044;2022-11-20T01:09:10;2.47;;;1.20;;
15567;SDS011;7885;42.596;23.044;2022-11-20T01:11:39;3.77;;;1.70;;
15567;SDS011;7885;42.596;23.044;2022-11-20T01:14:10;3.40;;;1.70;;
15567;SDS011;7885;42.596;23.044;2022-11-20T01:16:40;4.03;;;1.70;;
15567;SDS011;7885;42.596;23.044;2022-11-20T01:19:09;3.80;;;1.17;;
15567;SDS011;7885;42.596;23.044;2022-11-20T01:21:38;1.60;;;0.93;;
15567;SDS011;7885;42.596;23.044;2022-11-20T01:24:07;1.07;;;0.97;;
15567;SDS011;7885;42.596;23.044;2022-11-20T01:26:38;2.50;;;1.50;;
15567;SDS011;7885;42.596;23.044;2022-11-20T01:29:06;3.00;;;1.47;;
15567;SDS011;7885;42.596;23.044;2022-11-20T01:31:36;4.67;;;0.97;;
15567;SDS011;7885;42.596;23.044;2022-11-20T01:34:04;2.40;;;1.47;;
15567;SDS011;7885;42.596;23.044;2022-11-20T01:36:33;2.97;;;1.40;;
15567;SDS011;7885;42.596;23.044;2022-11-20T01:39:05;2.50;;;1.47;;
15567;SDS011;7885;42.596;23.044;2022-11-20T01:41:33;3.87;;;1.50;;
15567;SDS011;7885;42.596;23.044;2022-11-20T01:44:19;2.67;;;1.50;;
15567;SDS011;7885;42.596;23.044;2022-11-20T01:46:51;2.50;;;1.20;;
15567;SDS011;7885;42.596;23.044;2022-11-20T01:49:24;4.00;;;1.30;;
15567;SDS011;7885;42.596;23.044;2022-11-20T01:51:54;1.63;;;1.20;;
15567;SDS011;7885;42.596;23.044;2022-11-20T01:54:25;5.67;;;1.37;;
15567;SDS011;7885;42.596;23.044;2022-11-20T01:56:57;2.87;;;1.50;;
15567;SDS011;7885;42.596;23.044;2022-11-20T01:59:26;3.13;;;1.20;;
15567;SDS011;7885;42.596;23.044;2022-11-20T02:01:56;3.10;;;1.50;;
15567;SDS011;7885;42.596;23.044;2022-11-20T02:04:24;5.13;;;1.23;;
15567;SDS011;7885;42.596;23.044;2022-11-20T02:06:53;2.43;;;1.00;;
15567;SDS011;7885;42.596;23.044;2022-11-20T02:09:24;4.07;;;1.40;;
15567;SDS011;7885;42.596;23.044;2022-11-20T02:11:51;2.40;;;1.40;;
15567;SDS011;7885;42.596;23.044;2022-11-20T02:14:18;4.03;;;1.60;;
15567;SDS011;7885;42.596;23.044;2022-11-20T02:16:46;3.10;;;1.40;;
15567;SDS011;7885;42.596;23.044;2022-11-20T02:19:19;3.03;;;1.00;;
15567;SDS011;7885;42.596;23.044;2022-11-20T02:21:52;4.67;;;1.30;;
15567;SDS011;7885;42.596;23.044;2022-11-20T02:24:28;2.67;;;1.23;;
15567;SDS011;7885;42.596;23.044;2022-11-20T02:26:56;4.57;;;1.57;;
15567;SDS011;7885;42.596;23.044;2022-11-20T02:29:26;3.30;;;1.20;;
15567;SDS011;7885;42.596;23.044;2022-11-20T02:31:56;3.80;;;1.50;;
15567;SDS011;7885;42.596;23.044;2022-11-20T02:34:24;4.33;;;1.30;;
15567;SDS011;7885;42.596;23.044;2022-11-20T02:36:51;2.37;;;1.20;;
15567;SDS011;7885;42.596;23.044;2022-11-20T02:39:19;2.90;;;1.50;;
15567;SDS011;7885;42.596;23.044;2022-11-20T02:41:50;3.07;;;1.47;;
15567;SDS011;7885;42.596;23.044;2022-11-20T02:44:19;2.73;;;1.20;;
15567;SDS011;7885;42.596;23.044;2022-11-20T02:46:46;7.47;;;1.80;;
15567;SDS011;7885;42.596;23.044;2022-11-20T02:49:12;2.40;;;1.17;;
15567;SDS011;7885;42.596;23.044;2022-11-20T02:51:39;3.07;;;1.60;;
15567;SDS011;7885;42.596;23.044;2022-11-20T02:54:06;3.83;;;1.50;;
15567;SDS011;7885;42.596;23.044;2022-11-20T02:56:33;2.43;;;1.50;;
15567;SDS011;7885;42.596;23.044;2022-11-20T02:59:01;3.27;;;1.60;;
15567;SDS011;7885;42.596;23.044;2022-11-20T03:01:28;4.43;;;1.53;;
15567;SDS011;7885;42.596;23.044;2022-11-20T03:03:55;3.40;;;1.43;;
15567;SDS011;7885;42.596;23.044;2022-11-20T03:06:22;2.80;;;1.40;;
15567;SDS011;7885;42.596;23.044;2022-11-20T03:08:48;2.40;;;1.23;;
15567;SDS011;7885;42.596;23.044;2022-11-20T03:11:15;3.70;;;1.70;;
15567;SDS011;7885;42.596;23.044;2022-11-20T03:13:43;3.73;;;1.47;;
15567;SDS011;7885;42.596;23.044;2022-11-20T03:16:12;3.37;;;1.20;;
15567;SDS011;7885;42.596;23.044;2022-11-20T03:18:41;1.63;;;1.40;;
15567;SDS011;7885;42.596;23.044;2022-11-20T03:21:08;4.77;;;1.40;;
15567;SDS011;7885;42.596;23.044;2022-11-20T03:23:36;3.80;;;1.37;;
15567;SDS011;7885;42.596;23.044;2022-11-20T03:26:11;3.97;;;1.50;;
15567;SDS011;7885;42.596;23.044;2022-11-20T03:28:39;3.10;;;1.53;;
15567;SDS011;7885;42.596;23.044;2022-11-20T03:31:07;3.97;;;1.60;;
15567;SDS011;7885;42.596;23.044;2022-11-20T03:33:37;3.43;;;1.50;;
15567;SDS011;7885;42.596;23.044;2022-11-20T03:36:05;3.23;;;1.50;;
15567;SDS011;7885;42.596;23.044;2022-11-20T03:38:33;4.50;;;1.37;;
15567;SDS011;7885;42.596;23.044;2022-11-20T03:41:01;3.47;;;1.50;;
15567;SDS011;7885;42.596;23.044;2022-11-20T03:43:29;3.57;;;1.40;;
15567;SDS011;7885;42.596;23.044;2022-11-20T03:45:55;3.90;;;1.50;;
15567;SDS011;7885;42.596;23.044;2022-11-20T03:48:22;1.97;;;1.10;;
15567;SDS011;7885;42.596;23.044;2022-11-20T03:50:51;4.63;;;1.60;;
15567;SDS011;7885;42.596;23.044;2022-11-20T03:53:18;3.47;;;1.57;;
15567;SDS011;7885;42.596;23.044;2022-11-20T03:55:45;3.90;;;1.57;;
15567;SDS011;7885;42.596;23.044;2022-11-20T03:58:17;2.77;;;1.20;;
15567;SDS011;7885;42.596;23.044;2022-11-20T04:00:44;3.57;;;1.63;;
15567;SDS011;7885;42.596;23.044;2022-11-20T04:03:10;3.63;;;1.50;;
15567;SDS011;7885;42.596;23.044;2022-11-20T04:05:37;3.37;;;1.30;;
15567;SDS011;7885;42.596;23.044;2022-11-20T04:08:06;2.83;;;1.30;;
15567;SDS011;7885;42.596;23.044;2022-11-20T04:10:32;3.67;;;1.67;;
15567;SDS011;7885;42.596;23.044;2022-11-20T04:12:59;4.30;;;1.33;;
15567;SDS011;7885;42.596;23.044;2022-11-20T04:15:26;2.33;;;1.40;;
15567;SDS011;7885;42.596;23.044;2022-11-20T04:17:53;3.67;;;1.20;;
15567;SDS011;7885;42.596;23.044;2022-11-20T04:20:20;2.80;;;1.20;;
15567;SDS011;7885;42.596;23.044;2022-11-20T04:22:47;2.90;;;1.37;;
15567;SDS011;7885;42.596;23.044;2022-11-20T04:25:15;2.80;;;1.40;;
15567;SDS011;7885;42.596;23.044;2022-11-20T04:27:41;3.17;;;1.13;;
15567;SDS011;7885;42.596;23.044;2022-11-20T04:30:09;2.50;;;1.20;;
15567;SDS011;7885;42.596;23.044;2022-11-20T04:32:36;5.07;;;1.60;;
15567;SDS011;7885;42.596;23.044;2022-11-20T04:35:03;2.67;;;1.40;;
15567;SDS011;7885;42.596;23.044;2022-11-20T04:37:31;2.03;;;1.30;;
15567;SDS011;7885;42.596;23.044;2022-11-20T04:39:57;1.67;;;1.30;;
15567;SDS011;7885;42.596;23.044;2022-11-20T04:42:26;8.00;;;2.90;;
15567;SDS011;7885;42.596;23.044;2022-11-20T04:44:55;3.40;;;1.33;;
15567;SDS011;7885;42.596;23.044;2022-11-20T04:47:23;2.13;;;1.40;;
15567;SDS011;7885;42.596;23.044;2022-11-20T04:49:50;1.67;;;1.00;;
15567;SDS011;7885;42.596;23.044;2022-11-20T04:52:16;3.27;;;1.23;;
15567;SDS011;7885;42.596;23.044;2022-11-20T04:54:43;3.63;;;1.60;;
15567;SDS011;7885;42.596;23.044;2022-11-20T04:57:12;4.47;;;1.27;;
15567;SDS011;7885;42.596;23.044;2022-11-20T04:59:41;2.30;;;1.20;;
15567;SDS011;7885;42.596;23.044;2022-11-20T05:02:08;3.20;;;1.30;;
15567;SDS011;7885;42.596;23.044;2022-11-20T05:04:35;4.20;;;1.40;;
15567;SDS011;7885;42.596;23.044;2022-11-20T05:07:02;2.87;;;1.30;;
15567;SDS011;7885;42.596;23.044;2022-11-20T05:09:29;2.37;;;1.00;;
15567;SDS011;7885;42.596;23.044;2022-11-20T05:11:55;2.77;;;1.37;;
15567;SDS011;7885;42.596;23.044;2022-11-20T05:14:22;2.00;;;0.90;;
15567;SDS011;7885;42.596;23.044;2022-11-20T05:16:50;3.70;;;1.10;;
15567;SDS011;7885;42.596;23.044;2022-11-20T05:19:17;2.90;;;1.10;;
15567;SDS011;7885;42.596;23.044;2022-11-20T05:21:44;2.73;;;1.13;;
15567;SDS011;7885;42.596;23.044;2022-11-20T05:24:11;2.67;;;1.17;;
15567;SDS011;7885;42.596;23.044;2022-11-20T05:26:37;2.10;;;0.93;;
15567;SDS011;7885;42.596;23.044;2022-11-20T05:29:04;2.07;;;1.07;;
15567;SDS011;7885;42.596;23.044;2022-11-20T05:31:31;2.93;;;0.90;;
15567;SDS011;7885;42.596;23.044;2022-11-20T05:33:59;5.50;;;1.83;;
15567;SDS011;7885;42.596;23.044;2022-11-20T05:36:26;3.67;;;1.70;;
15567;SDS011;7885;42.596;23.044;2022-11-20T05:39:11;1.70;;;1.30;;
15567;SDS011;7885;42.596;23.044;2022-11-20T05:41:37;3.90;;;1.57;;
15567;SDS011;7885;42.596;23.044;2022-11-20T05:44:04;3.10;;;1.30;;
15567;SDS011;7885;42.596;23.044;2022-11-20T05:46:31;1.40;;;1.00;;
15567;SDS011;7885;42.596;23.044;2022-11-20T05:48:59;1.60;;;1.20;;
15567;SDS011;7885;42.596;23.044;2022-11-20T05:51:26;3.40;;;1.57;;
15567;SDS011;7885;42.596;23.044;2022-11-20T05:53:53;5.20;;;1.33;;
15567;SDS011;7885;42.596;23.044;2022-11-20T05:56:22;6.10;;;1.10;;
15567;SDS011;7885;42.596;23.044;2022-11-20T05:58:49;4.60;;;1.80;;
15567;SDS011;7885;42.596;23.044;2022-11-20T06:01:16;2.17;;;1.23;;
15567;SDS011;7885;42.596;23.044;2022-11-20T06:03:44;4.60;;;1.80;;
15567;SDS011;7885;42.596;23.044;2022-11-20T06:06:14;4.93;;;1.27;;
15567;SDS011;7885;42.596;23.044;2022-11-20T06:08:41;3.17;;;1.40;;
15567;SDS011;7885;42.596;23.044;2022-11-20T06:11:10;3.90;;;1.47;;
15567;SDS011;7885;42.596;23.044;2022-11-20T06:13:38;5.13;;;1.50;;
15567;SDS011;7885;42.596;23.044;2022-11-20T06:16:06;2.93;;;1.20;;
15567;SDS011;7885;42.596;23.044;2022-11-20T06:18:33;1.40;;;1.17;;
15567;SDS011;7885;42.596;23.044;2022-11-20T06:21:00;1.93;;;1.30;;
15567;SDS011;7885;42.596;23.044;2022-11-20T06:23:30;5.90;;;1.40;;
15567;SDS011;7885;42.596;23.044;2022-11-20T06:25:58;3.37;;;1.00;;
15567;SDS011;7885;42.596;23.044;2022-11-20T06:28:27;2.73;;;1.23;;
15567;SDS011;7885;42.596;23.044;2022-11-20T06:30:54;5.00;;;1.30;;
15567;SDS011;7885;42.596;23.044;2022-11-20T06:33:21;3.67;;;1.30;;
15567;SDS011;7885;42.596;23.044;2022-11-20T06:35:51;2.03;;;1.30;;
15567;SDS011;7885;42.596;23.044;2022-11-20T06:38:18;4.23;;;1.30;;
15567;SDS011;7885;42.596;23.044;2022-11-20T06:40:47;1.63;;;1.20;;
15567;SDS011;7885;42.596;23.044;2022-11-20T06:43:14;2.20;;;1.17;;
15567;SDS011;7885;42.596;23.044;2022-11-20T06:45:41;3.43;;;1.40;;
15567;SDS011;7885;42.596;23.044;2022-11-20T06:48:07;2.57;;;1.37;;
15567;SDS011;7885;42.596;23.044;2022-11-20T06:50:35;2.37;;;1.17;;
15567;SDS011;7885;42.596;23.044;2022-11-20T06:53:03;2.60;;;1.23;;
15567;SDS011;7885;42.596;23.044;2022-11-20T06:55:31;2.90;;;1.10;;
15567;SDS011;7885;42.596;23.044;2022-11-20T06:57:59;3.33;;;1.50;;
15567;SDS011;7885;42.596;23.044;2022-11-20T07:00:26;2.07;;;1.37;;
15567;SDS011;7885;42.596;23.044;2022-11-20T07:02:52;1.63;;;1.20;;
15567;SDS011;7885;42.596;23.044;2022-11-20T07:05:20;1.53;;;1.10;;
15567;SDS011;7885;42.596;23.044;2022-11-20T07:07:46;2.80;;;1.20;;
15567;SDS011;7885;42.596;23.044;2022-11-20T07:10:13;4.17;;;1.57;;
15567;SDS011;7885;42.596;23.044;2022-11-20T07:12:40;3.70;;;1.60;;
15567;SDS011;7885;42.596;23.044;2022-11-20T07:15:08;2.20;;;1.23;;
15567;SDS011;7885;42.596;23.044;2022-11-20T07:17:35;2.77;;;1.53;;
15567;SDS011;7885;42.596;23.044;2022-11-20T07:20:02;2.30;;;1.17;;
15567;SDS011;7885;42.596;23.044;2022-11-20T07:22:29;3.27;;;1.20;;
15567;SDS011;7885;42.596;23.044;2022-11-20T07:24:56;3.13;;;1.50;;
15567;SDS011;7885;42.596;23.044;2022-11-20T07:27:23;4.20;;;1.47;;
15567;SDS011;7885;42.596;23.044;2022-11-20T07:29:49;4.27;;;1.13;;
15567;SDS011;7885;42.596;23.044;2022-11-20T07:32:18;3.50;;;1.47;;
15567;SDS011;7885;42.596;23.044;2022-11-20T07:34:44;4.63;;;1.40;;
15567;SDS011;7885;42.596;23.044;2022-11-20T07:37:11;5.20;;;1.80;;
15567;SDS011;7885;42.596;23.044;2022-11-20T07:39:38;4.70;;;1.80;;
15567;SDS011;7885;42.596;23.044;2022-11-20T07:42:05;3.27;;;1.53;;
15567;SDS011;7885;42.596;23.044;2022-11-20T07:44:33;3.23;;;1.10;;
15567;SDS011;7885;42.596;23.044;2022-11-20T07:47:00;3.67;;;1.50;;
15567;SDS011;7885;42.596;23.044;2022-11-20T07:49:28;3.97;;;1.37;;
15567;SDS011;7885;42.596;23.044;2022-11-20T07:51:55;3.13;;;1.30;;
15567;SDS011;7885;42.596;23.044;2022-11-20T07:54:22;3.33;;;1.33;;
15567;SDS011;7885;42.596;23.044;2022-11-20T07:56:49;5.43;;;1.87;;
15567;SDS011;7885;42.596;23.044;2022-11-20T07:59:15;4.63;;;1.70;;
15567;SDS011;7885;42.596;23.044;2022-11-20T08:01:42;4.47;;;2.10;;
15567;SDS011;7885;42.596;23.044;2022-11-20T08:04:09;3.70;;;1.50;;
15567;SDS011;7885;42.596;23.044;2022-11-20T08:06:37;5.10;;;1.87;;
15567;SDS011;7885;42.596;23.044;2022-11-20T08:09:04;4.77;;;1.90;;
15567;SDS011;7885;42.596;23.044;2022-11-20T08:11:31;3.03;;;1.83;;
15567;SDS011;7885;42.596;23.044;2022-11-20T08:14:15;5.83;;;2.00;;
15567;SDS011;7885;42.596;23.044;2022-11-20T08:16:42;3.43;;;1.80;;
15567;SDS011;7885;42.596;23.044;2022-11-20T08:19:10;5.23;;;1.87;;
15567;SDS011;7885;42.596;23.044;2022-11-20T08:21:38;11.13;;;2.40;;
15567;SDS011;7885;42.596;23.044;2022-11-20T08:24:06;6.13;;;2.37;;
15567;SDS011;7885;42.596;23.044;2022-11-20T08:26:33;6.30;;;2.00;;
15567;SDS011;7885;42.596;23.044;2022-11-20T08:29:00;3.67;;;2.40;;
15567;SDS011;7885;42.596;23.044;2022-11-20T08:31:27;10.47;;;6.13;;
15567;SDS011;7885;42.596;23.044;2022-11-20T08:33:54;5.63;;;2.30;;
15567;SDS011;7885;42.596;23.044;2022-11-20T08:36:22;7.13;;;2.00;;
15567;SDS011;7885;42.596;23.044;2022-11-20T08:38:51;3.90;;;1.63;;
15567;SDS011;7885;42.596;23.044;2022-11-20T08:41:19;3.97;;;1.60;;
15567;SDS011;7885;42.596;23.044;2022-11-20T08:43:54;2.93;;;1.57;;
15567;SDS011;7885;42.596;23.044;2022-11-20T08:46:23;1.20;;;0.77;;
15567;SDS011;7885;42.596;23.044;2022-11-20T08:48:50;3.50;;;1.20;;
15567;SDS011;7885;42.596;23.044;2022-11-20T08:51:17;5.10;;;1.77;;
15567;SDS011;7885;42.596;23.044;2022-11-20T08:53:45;2.73;;;1.30;;
15567;SDS011;7885;42.596;23.044;2022-11-20T08:56:14;2.87;;;1.13;;
15567;SDS011;7885;42.596;23.044;2022-11-20T08:58:42;5.50;;;1.27;;
15567;SDS011;7885;42.596;23.044;2022-11-20T09:04:31;3.73;;;1.40;;
15567;SDS011;7885;42.596;23.044;2022-11-20T09:06:59;2.87;;;1.40;;
15567;SDS011;7885;42.596;23.044;2022-11-20T09:09:26;2.80;;;1.30;;
15567;SDS011;7885;42.596;23.044;2022-11-20T09:11:55;2.97;;;1.60;;
15567;SDS011;7885;42.596;23.044;2022-11-20T09:14:21;8.00;;;1.60;;
15567;SDS011;7885;42.596;23.044;2022-11-20T09:16:49;4.07;;;1.20;;
15567;SDS011;7885;42.596;23.044;2022-11-20T09:19:16;3.70;;;1.13;;
15567;SDS011;7885;42.596;23.044;2022-11-20T09:21:43;2.70;;;1.53;;
15567;SDS011;7885;42.596;23.044;2022-11-20T09:24:10;7.17;;;1.70;;
15567;SDS011;7885;42.596;23.044;2022-11-20T09:26:36;5.60;;;1.70;;
15567;SDS011;7885;42.596;23.044;2022-11-20T09:29:05;6.47;;;1.57;;
15567;SDS011;7885;42.596;23.044;2022-11-20T09:31:32;5.57;;;1.40;;
15567;SDS011;7885;42.596;23.044;2022-11-20T09:33:58;3.70;;;1.70;;
15567;SDS011;7885;42.596;23.044;2022-11-20T09:36:25;6.67;;;1.70;;
15567;SDS011;7885;42.596;23.044;2022-11-20T09:42:20;5.07;;;1.70;;
15567;SDS011;7885;42.596;23.044;2022-11-20T09:45:02;3.97;;;1.67;;
15567;SDS011;7885;42.596;23.044;2022-11-20T09:47:40;4.13;;;1.63;;
15567;SDS011;7885;42.596;23.044;2022-11-20T09:50:23;4.57;;;1.63;;
15567;SDS011;7885;42.596;23.044;2022-11-20T09:52:59;5.67;;;1.57;;
15567;SDS011;7885;42.596;23.044;2022-11-20T09:55:36;4.37;;;1.80;;
15567;SDS011;7885;42.596;23.044;2022-11-20T09:58:05;7.50;;;1.80;;
15567;SDS011;7885;42.596;23.044;2022-11-20T10:00:34;5.57;;;1.90;;
15567;SDS011;7885;42.596;23.044;2022-11-20T10:03:02;5.33;;;2.13;;
15567;SDS011;7885;42.596;23.044;2022-11-20T10:05:39;6.00;;;2.20;;
15567;SDS011;7885;42.596;23.044;2022-11-20T10:08:12;5.50;;;2.50;;
15567;SDS011;7885;42.596;23.044;2022-11-20T10:10:46;5.87;;;2.57;;
15567;SDS011;7885;42.596;23.044;2022-11-20T10:13:23;5.90;;;2.10;;
15567;SDS011;7885;42.596;23.044;2022-11-20T10:16:08;7.77;;;2.13;;
15567;SDS011;7885;42.596;23.044;2022-11-20T10:18:50;9.20;;;2.97;;
15567;SDS011;7885;42.596;23.044;2022-11-20T10:21:27;9.97;;;2.67;;
15567;SDS011;7885;42.596;23.044;2022-11-20T10:24:23;9.60;;;3.03;;
15567;SDS011;7885;42.596;23.044;2022-11-20T10:27:06;4.63;;;2.47;;
15567;SDS011;7885;42.596;23.044;2022-11-20T10:29:45;10.33;;;4.00;;
15567;SDS011;7885;42.596;23.044;2022-11-20T10:32:18;13.73;;;3.23;;
15567;SDS011;7885;42.596;23.044;2022-11-20T10:34:48;5.40;;;2.47;;
15567;SDS011;7885;42.596;23.044;2022-11-20T10:37:22;5.33;;;3.00;;
15567;SDS011;7885;42.596;23.044;2022-11-20T10:39:51;3.53;;;2.23;;
15567;SDS011;7885;42.596;23.044;2022-11-20T10:42:26;9.73;;;3.27;;
15567;SDS011;7885;42.596;23.044;2022-11-20T10:44:59;5.20;;;1.70;;
15567;SDS011;7885;42.596;23.044;2022-11-20T10:47:37;2.00;;;0.70;;
15567;SDS011;7885;42.596;23.044;2022-11-20T10:50:04;1.97;;;0.87;;
15567;SDS011;7885;42.596;23.044;2022-11-20T10:52:37;1.27;;;0.73;;
15567;SDS011;7885;42.596;23.044;2022-11-20T10:55:18;2.40;;;0.60;;
15567;SDS011;7885;42.596;23.044;2022-11-20T10:57:56;1.00;;;0.60;;
15567;SDS011;7885;42.596;23.044;2022-11-20T11:00:32;1.23;;;0.40;;
15567;SDS011;7885;42.596;23.044;2022-11-20T11:03:00;1.53;;;0.60;;
15567;SDS011;7885;42.596;23.044;2022-11-20T11:05:33;1.73;;;0.67;;
15567;SDS011;7885;42.596;23.044;2022-11-20T11:08:04;0.60;;;0.60;;
15567;SDS011;7885;42.596;23.044;2022-11-20T11:10:37;0.60;;;0.43;;
15567;SDS011;7885;42.596;23.044;2022-11-20T11:13:18;0.90;;;0.50;;
15567;SDS011;7885;42.596;23.044;2022-11-20T11:15:46;1.33;;;0.60;;
15567;SDS011;7885;42.596;23.044;2022-11-20T11:18:23;0.30;;;0.30;;
15567;SDS011;7885;42.596;23.044;2022-11-20T11:20:51;0.97;;;0.63;;
15567;SDS011;7885;42.596;23.044;2022-11-20T11:23:28;0.33;;;0.30;;
15567;SDS011;7885;42.596;23.044;2022-11-20T11:25:58;1.07;;;0.63;;
15567;SDS011;7885;42.596;23.044;2022-11-20T11:28:26;1.50;;;0.80;;
15567;SDS011;7885;42.596;23.044;2022-11-20T11:30:53;1.80;;;0.90;;
15567;SDS011;7885;42.596;23.044;2022-11-20T11:33:21;1.90;;;0.60;;
15567;SDS011;7885;42.596;23.044;2022-11-20T11:35:51;1.10;;;0.60;;
15567;SDS011;7885;42.596;23.044;2022-11-20T11:38:22;2.57;;;0.67;;
15567;SDS011;7885;42.596;23.044;2022-11-20T11:40:56;2.90;;;0.80;;
15567;SDS011;7885;42.596;23.044;2022-11-20T11:43:24;1.60;;;0.67;;
15567;SDS011;7885;42.596;23.044;2022-11-20T11:48:57;1.97;;;0.60;;
15567;SDS011;7885;42.596;23.044;2022-11-20T11:51:28;1.83;;;0.57;;
15567;SDS011;7885;42.596;23.044;2022-11-20T11:54:00;1.87;;;0.60;;
15567;SDS011;7885;42.596;23.044;2022-11-20T11:56:34;2.20;;;0.70;;
15567;SDS011;7885;42.596;23.044;2022-11-20T11:59:02;2.53;;;0.90;;
15567;SDS011;7885;42.596;23.044;2022-11-20T12:01:35;3.10;;;0.77;;
15567;SDS011;7885;42.596;23.044;2022-11-20T12:04:09;3.73;;;0.97;;
15567;SDS011;7885;42.596;23.044;2022-11-20T12:06:50;5.13;;;1.10;;
15567;SDS011;7885;42.596;23.044;2022-11-20T12:09:24;1.87;;;1.10;;
15567;SDS011;7885;42.596;23.044;2022-11-20T12:12:08;2.93;;;0.97;;
15567;SDS011;7885;42.596;23.044;2022-11-20T12:14:40;2.37;;;0.70;;
15567;SDS011;7885;42.596;23.044;2022-11-20T12:17:11;1.50;;;0.47;;
15567;SDS011;7885;42.596;23.044;2022-11-20T12:19:39;1.70;;;0.80;;
15567;SDS011;7885;42.596;23.044;2022-11-20T12:22:12;2.37;;;0.80;;
15567;SDS011;7885;42.596;23.044;2022-11-20T12:24:49;1.67;;;0.90;;
15567;SDS011;7885;42.596;23.044;2022-11-20T12:27:27;2.53;;;0.90;;
15567;SDS011;7885;42.596;23.044;2022-11-20T12:30:10;1.20;;;0.70;;
15567;SDS011;7885;42.596;23.044;2022-11-20T12:32:46;1.97;;;0.80;;
15567;SDS011;7885;42.596;23.044;2022-11-20T12:38:29;2.10;;;0.70;;
15567;SDS011;7885;42.596;23.044;2022-11-20T12:41:08;0.53;;;0.50;;
15567;SDS011;7885;42.596;23.044;2022-11-20T12:44:04;1.53;;;0.80;;
15567;SDS011;7885;42.596;23.044;2022-11-20T12:47:01;2.83;;;0.93;;
15567;SDS011;7885;42.596;23.044;2022-11-20T12:49:41;2.27;;;0.73;;
15567;SDS011;7885;42.596;23.044;2022-11-20T12:52:23;4.50;;;0.70;;
15567;SDS011;7885;42.596;23.044;2022-11-20T12:58:09;2.87;;;0.67;;
15567;SDS011;7885;42.596;23.044;2022-11-20T13:00:43;3.10;;;0.80;;
15567;SDS011;7885;42.596;23.044;2022-11-20T13:03:25;3.73;;;1.20;;
15567;SDS011;7885;42.596;23.044;2022-11-20T13:06:05;11.37;;;2.53;;
15567;SDS011;7885;42.596;23.044;2022-11-20T13:08:38;12.67;;;3.30;;
15567;SDS011;7885;42.596;23.044;2022-11-20T13:11:13;7.43;;;2.97;;
15567;SDS011;7885;42.596;23.044;2022-11-20T13:13:48;10.30;;;3.23;;
15567;SDS011;7885;42.596;23.044;2022-11-20T13:16:30;17.03;;;3.87;;
15567;SDS011;7885;42.596;23.044;2022-11-20T13:21:49;11.53;;;3.90;;
15567;SDS011;7885;42.596;23.044;2022-11-20T13:24:24;17.70;;;4.67;;
15567;SDS011;7885;42.596;23.044;2022-11-20T13:27:17;19.43;;;4.50;;
15567;SDS011;7885;42.596;23.044;2022-11-20T13:29:46;13.30;;;4.33;;
15567;SDS011;7885;42.596;23.044;2022-11-20T13:32:25;13.70;;;4.40;;
15567;SDS011;7885;42.596;23.044;2022-11-20T13:34:57;15.03;;;4.43;;
15567;SDS011;7885;42.596;23.044;2022-11-20T13:37:30;13.07;;;3.43;;
15567;SDS011;7885;42.596;23.044;2022-11-20T13:40:05;12.03;;;3.70;;
15567;SDS011;7885;42.596;23.044;2022-11-20T13:42:40;11.80;;;3.93;;
15567;SDS011;7885;42.596;23.044;2022-11-20T13:45:11;13.27;;;3.20;;
15567;SDS011;7885;42.596;23.044;2022-11-20T13:47:49;9.73;;;3.17;;
15567;SDS011;7885;42.596;23.044;2022-11-20T13:50:17;10.80;;;3.10;;
15567;SDS011;7885;42.596;23.044;2022-11-20T13:52:46;13.03;;;3.30;;
15567;SDS011;7885;42.596;23.044;2022-11-20T13:55:23;9.77;;;2.87;;
15567;SDS011;7885;42.596;23.044;2022-11-20T13:58:01;12.17;;;3.70;;
15567;SDS011;7885;42.596;23.044;2022-11-20T14:00:43;12.13;;;3.00;;
15567;SDS011;7885;42.596;23.044;2022-11-20T14:03:17;9.70;;;3.13;;
15567;SDS011;7885;42.596;23.044;2022-11-20T14:05:49;8.10;;;2.77;;
15567;SDS011;7885;42.596;23.044;2022-11-20T14:08:23;9.60;;;3.37;;
15567;SDS011;7885;42.596;23.044;2022-11-20T14:11:02;9.93;;;3.40;;
15567;SDS011;7885;42.596;23.044;2022-11-20T14:13:32;10.30;;;3.10;;
15567;SDS011;7885;42.596;23.044;2022-11-20T14:15:59;10.40;;;2.97;;
15567;SDS011;7885;42.596;23.044;2022-11-20T14:18:26;11.00;;;2.87;;
15567;SDS011;7885;42.596;23.044;2022-11-20T14:20:53;11.30;;;2.93;;
15567;SDS011;7885;42.596;23.044;2022-11-20T14:23:23;11.80;;;3.07;;
15567;SDS011;7885;42.596;23.044;2022-11-20T14:26:01;8.93;;;3.00;;
15567;SDS011;7885;42.596;23.044;2022-11-20T14:28:28;10.63;;;3.33;;
15567;SDS011;7885;42.596;23.044;2022-11-20T14:30:57;13.30;;;3.37;;
15567;SDS011;7885;42.596;23.044;2022-11-20T14:33:25;11.10;;;2.80;;
15567;SDS011;7885;42.596;23.044;2022-11-20T14:35:53;13.30;;;2.90;;
15567;SDS011;7885;42.596;23.044;2022-11-20T14:38:41;12.13;;;2.60;;
15567;SDS011;7885;42.596;23.044;2022-11-20T14:41:09;11.50;;;2.80;;
15567;SDS011;7885;42.596;23.044;2022-11-20T14:43:45;10.63;;;2.77;;
15567;SDS011;7885;42.596;23.044;2022-11-20T14:46:14;12.33;;;4.00;;
15567;SDS011;7885;42.596;23.044;2022-11-20T14:48:43;11.13;;;5.30;;
15567;SDS011;7885;42.596;23.044;2022-11-20T14:51:22;14.37;;;7.70;;
15567;SDS011;7885;42.596;23.044;2022-11-20T14:53:52;10.53;;;4.43;;
15567;SDS011;7885;42.596;23.044;2022-11-20T14:56:20;14.37;;;6.33;;
15567;SDS011;7885;42.596;23.044;2022-11-20T14:58:54;17.80;;;9.47;;
15567;SDS011;7885;42.596;23.044;2022-11-20T15:01:26;18.83;;;9.27;;
15567;SDS011;7885;42.596;23.044;2022-11-20T15:03:59;13.40;;;5.93;;
15567;SDS011;7885;42.596;23.044;2022-11-20T15:06:27;13.60;;;6.50;;
15567;SDS011;7885;42.596;23.044;2022-11-20T15:08:54;12.37;;;7.07;;
15567;SDS011;7885;42.596;23.044;2022-11-20T15:11:23;15.60;;;7.30;;
15567;SDS011;7885;42.596;23.044;2022-11-20T15:13:55;14.90;;;7.47;;
15567;SDS011;7885;42.596;23.044;2022-11-20T15:16:22;2.10;;;1.70;;
15567;SDS011;7885;42.596;23.044;2022-11-20T15:18:51;3.60;;;1.83;;
15567;SDS011;7885;42.596;23.044;2022-11-20T15:21:18;2.97;;;1.93;;